Time;durP1;ratioP1;P1;durP2;ratioP2;P2;SDS_P1;SDS_P2;PMS_P1;PMS_P2;Temp;Humidity;BMP_temperature;BMP_pressure;BME280_temperature;BME280_humidity;BME280_pressure;Samples;Min_cycle;Max_cycle;Signal;HPM_P1;HPM_P2
2022/12/11 00:01:19;;;;;;;42.33;22.82;;;;;;;0.36;86.10;98145.33;1755207;81;21457;-40
2022/12/11 00:03:47;;;;;;;46.35;24.87;;;;;;;0.32;86.29;98145.00;1749257;81;20957;-39
2022/12/11 00:06:16;;;;;;;48.60;25.43;;;;;;;0.37;86.36;98141.83;1748572;81;21019;-40
2022/12/11 00:08:41;;;;;;;44.58;24.12;;;;;;;0.40;86.38;98134.86;1754175;81;21052;-40
2022/12/11 00:11:14;;;;;;;48.60;25.60;;;;;;;0.44;86.58;98140.33;1749395;81;21019;-40
2022/12/11 00:13:39;;;;;;;45.75;25.30;;;;;;;0.46;86.48;98139.39;1748161;81;20960;-41
2022/12/11 00:16:06;;;;;;;47.10;25.48;;;;;;;0.42;86.39;98129.19;1748150;81;20972;-42
2022/12/11 00:18:32;;;;;;;40.12;21.95;;;;;;;0.45;86.18;98138.14;1757087;80;21007;-42
2022/12/11 00:21:02;;;;;;;42.83;23.42;;;;;;;0.45;86.16;98129.09;1751567;81;21484;-40
2022/12/11 00:23:29;;;;;;;44.63;24.00;;;;;;;0.18;86.46;98126.08;1748120;82;21583;-41
2022/12/11 00:25:55;;;;;;;45.25;24.60;;;;;;;0.15;87.06;98126.63;1748180;81;20960;-40
2022/12/11 00:28:21;;;;;;;46.77;24.40;;;;;;;0.30;86.86;98131.73;1747972;81;20972;-42
2022/12/11 00:30:47;;;;;;;48.23;24.98;;;;;;;0.34;87.17;98126.41;1748070;81;21015;-40
2022/12/11 00:33:14;;;;;;;49.40;25.75;;;;;;;0.23;87.02;98134.13;1747914;81;21003;-41
2022/12/11 00:35:42;;;;;;;53.70;26.35;;;;;;;0.36;86.94;98139.28;1748225;81;21547;-41
2022/12/11 00:38:10;;;;;;;46.18;25.85;;;;;;;0.06;87.74;98148.89;1747951;81;20976;-40
2022/12/11 00:40:36;;;;;;;50.28;26.90;;;;;;;0.14;87.85;98146.43;1736325;81;21493;-41
2022/12/11 00:43:02;;;;;;;49.67;27.20;;;;;;;0.23;87.53;98144.47;1752581;80;20991;-41
2022/12/11 00:45:28;;;;;;;51.42;26.50;;;;;;;0.33;87.30;98151.88;1751704;81;21056;-41
2022/12/11 00:47:54;;;;;;;47.75;25.90;;;;;;;0.35;87.32;98147.50;1753816;81;21009;-40
2022/12/11 00:50:20;;;;;;;39.35;21.75;;;;;;;0.37;87.36;98144.41;1748154;81;21011;-40
2022/12/11 00:52:45;;;;;;;42.45;22.58;;;;;;;0.43;86.75;98143.37;1749213;81;21008;-40
2022/12/11 00:55:12;;;;;;;35.95;20.02;;;;;;;0.27;86.21;98151.22;1748128;81;21011;-40
2022/12/11 00:57:38;;;;;;;32.40;18.60;;;;;;;0.07;85.81;98141.52;1748094;81;21043;-41
2022/12/11 01:00:06;;;;;;;35.78;20.30;;;;;;;0.07;85.81;98141.52;1748141;81;21388;-40
2022/12/11 01:02:32;;;;;;;;;;;;;;;0.21;86.15;98147.55;1752587;81;20977;-41
2022/12/11 01:04:58;;;;;;;37.30;19.80;;;;;;;0.15;86.33;98144.72;1749408;81;20124;-40
2022/12/11 01:07:24;;;;;;;34.08;19.92;;;;;;;0.12;86.12;98143.52;1755030;81;21226;-40
2022/12/11 01:12:34;;;;;;;39.60;20.57;;;;;;;0.31;86.03;98130.41;1751393;81;21005;-41
2022/12/11 01:15:00;;;;;;;36.85;20.12;;;;;;;0.20;86.29;98128.61;1747890;81;21007;-40
2022/12/11 01:17:26;;;;;;;40.43;21.33;;;;;;;0.04;86.20;98123.50;1748178;81;21023;-40
2022/12/11 01:19:55;;;;;;;38.92;20.55;;;;;;;0.11;86.36;98125.87;1748058;81;21861;-41
2022/12/11 01:22:21;;;;;;;33.13;19.90;;;;;;;0.10;86.36;98124.16;1748867;81;21027;-41
2022/12/11 01:24:46;;;;;;;40.08;22.37;;;;;;;0.12;86.70;98122.83;1751262;81;21046;-40
2022/12/11 01:27:12;;;;;;;41.40;21.48;;;;;;;0.09;86.46;98118.62;1757858;81;21446;-41
2022/12/11 01:29:38;;;;;;;37.80;20.55;;;;;;;-0.06;86.61;98117.33;1752540;81;21051;-40
2022/12/11 01:32:04;;;;;;;40.63;21.73;;;;;;;-0.21;87.45;98125.12;1751666;81;21054;-41
2022/12/11 01:34:32;;;;;;;39.30;21.27;;;;;;;-0.31;87.63;98113.81;1750213;81;20961;-41
2022/12/11 01:36:58;;;;;;;37.53;19.75;;;;;;;-0.44;88.23;98114.20;1738422;81;21015;-41
2022/12/11 01:39:24;;;;;;;39.67;22.07;;;;;;;-0.44;88.76;98108.17;1752275;81;21552;-40
2022/12/11 01:41:50;;;;;;;41.33;21.82;;;;;;;-0.56;88.50;98112.40;1749209;80;21030;-40
2022/12/11 01:44:21;;;;;;;37.80;22.37;;;;;;;-0.59;88.64;98111.61;1737612;82;21012;-40
2022/12/11 01:46:47;;;;;;;44.55;23.25;;;;;;;-0.48;88.60;98111.75;1748094;81;20988;-40
2022/12/11 01:49:16;;;;;;;44.30;24.02;;;;;;;-0.48;88.32;98099.67;1751572;81;21032;-40
2022/12/11 01:51:58;;;;;;;42.30;22.75;;;;;;;-0.56;88.95;98101.65;1756757;81;21528;-41
2022/12/11 01:54:26;;;;;;;43.40;22.82;;;;;;;-0.44;88.86;98101.30;1752441;81;21020;-41
2022/12/11 01:56:56;;;;;;;43.87;23.65;;;;;;;-0.46;88.72;98104.80;1757997;81;21631;-41
2022/12/11 01:59:26;;;;;;;39.98;22.73;;;;;;;-0.52;89.30;98099.38;1760063;81;21552;-41
2022/12/11 02:02:02;;;;;;;44.05;24.80;;;;;;;-0.37;88.94;98094.19;1750801;81;20976;-42
2022/12/11 02:04:29;;;;;;;41.10;22.63;;;;;;;-0.44;89.22;98093.55;1758492;81;21008;-41
2022/12/11 02:06:55;;;;;;;42.27;23.20;;;;;;;-0.45;88.74;98093.13;1758682;80;20979;-41
2022/12/11 02:09:24;;;;;;;45.12;24.35;;;;;;;-0.41;88.41;98086.14;1755158;81;20979;-41
2022/12/11 02:12:14;;;;;;;49.00;23.98;;;;;;;-0.37;88.29;98083.85;1750872;81;20988;-42
2022/12/11 02:14:48;;;;;;;43.68;22.30;;;;;;;-0.47;88.68;98076.84;1753158;81;20983;-44
2022/12/11 02:17:33;;;;;;;42.33;23.22;;;;;;;-0.53;89.14;98071.84;1751982;81;21020;-43
2022/12/11 02:20:28;;;;;;;40.52;21.97;;;;;;;-0.58;89.35;98060.83;1748628;81;21063;-41
2022/12/11 02:23:26;;;;;;;38.17;21.60;;;;;;;-0.58;89.29;98060.83;1757792;81;20987;-42
2022/12/11 02:25:58;;;;;;;39.38;20.77;;;;;;;-0.49;88.89;98056.67;1758775;81;20964;-41
2022/12/11 02:28:45;;;;;;;40.45;21.97;;;;;;;-0.43;88.33;98056.93;1751035;81;21026;-41
2022/12/11 02:31:37;;;;;;;37.67;20.62;;;;;;;-0.50;88.50;98053.68;1756360;81;21054;-42
2022/12/11 02:34:36;;;;;;;41.90;21.87;;;;;;;-0.61;88.85;98046.71;1758611;81;21002;-42
2022/12/11 02:37:07;;;;;;;37.58;20.60;;;;;;;-0.62;88.78;98049.75;1754531;81;21592;-42
2022/12/11 02:39:37;;;;;;;44.30;24.02;;;;;;;-0.63;89.40;98047.20;1750040;81;20998;-43
2022/12/11 02:43:30;;;;;;;45.63;22.85;;;;;;;-0.66;89.75;98039.55;1800585;79;23479;-42
2022/12/11 02:45:58;;;;;;;46.70;23.65;;;;;;;-0.70;89.84;98050.86;1761759;80;21461;-42
2022/12/11 02:48:25;;;;;;;44.38;23.32;;;;;;;-0.86;90.65;98042.72;1761820;81;21003;-42
2022/12/11 02:50:55;;;;;;;49.97;24.43;;;;;;;-0.86;90.51;98038.39;1762007;80;21143;-42
2022/12/11 02:53:25;;;;;;;48.10;23.62;;;;;;;-1.05;91.12;98041.13;1761739;81;21022;-41
2022/12/11 02:55:59;;;;;;;47.23;22.37;;;;;;;-1.04;91.27;98043.63;1761821;81;20991;-42
2022/12/11 02:58:32;;;;;;;45.67;23.60;;;;;;;-1.23;91.38;98045.06;1761768;80;21038;-42
2022/12/11 03:00:58;;;;;;;47.58;23.55;;;;;;;-1.08;92.09;98048.48;1761643;81;20999;-42
2022/12/11 03:03:24;;;;;;;46.77;23.25;;;;;;;-1.21;91.58;98054.89;1761728;80;20991;-42
2022/12/11 03:05:50;;;;;;;46.28;24.25;;;;;;;-0.96;91.54;98048.59;1761730;81;21046;-42
2022/12/11 03:08:17;;;;;;;42.03;22.37;;;;;;;-0.98;91.36;98052.96;1761718;81;20975;-42
2022/12/11 03:10:44;;;;;;;41.42;21.48;;;;;;;-1.26;92.09;98054.16;1761877;81;21444;-42
2022/12/11 03:13:13;;;;;;;44.77;22.05;;;;;;;-1.00;91.70;98050.42;1761970;81;21042;-42
2022/12/11 03:15:47;;;;;;;42.73;22.40;;;;;;;-1.15;91.40;98065.03;1761709;80;21504;-42
2022/12/11 03:18:37;;;;;;;46.35;22.10;;;;;;;-1.09;91.54;98060.14;1761454;80;21007;-42
2022/12/11 03:21:08;;;;;;;43.02;22.25;;;;;;;-1.00;91.06;98058.16;1761696;80;21006;-42
2022/12/11 03:24:03;;;;;;;44.03;21.07;;;;;;;-0.97;90.88;98053.34;1761787;81;20975;-41
2022/12/11 03:26:32;;;;;;;38.60;20.92;;;;;;;-0.91;90.38;98050.61;1761873;81;21035;-42
2022/12/11 03:29:06;;;;;;;42.78;21.77;;;;;;;-0.93;89.91;98060.10;1761677;80;20980;-41
2022/12/11 03:31:45;;;;;;;38.88;21.60;;;;;;;-0.99;89.79;98059.00;1761606;80;21492;-42
2022/12/11 03:34:17;;;;;;;42.17;21.15;;;;;;;-1.01;90.28;98055.63;1761830;81;20995;-41
2022/12/11 03:36:45;;;;;;;41.28;21.25;;;;;;;-1.24;90.20;98059.67;1761669;81;21724;-41
2022/12/11 03:39:19;;;;;;;37.30;20.97;;;;;;;-1.28;91.02;98059.81;1761723;81;21442;-43
2022/12/11 03:41:47;;;;;;;37.25;20.08;;;;;;;-1.36;91.34;98067.77;1756475;81;21020;-40
2022/12/11 03:44:15;;;;;;;37.90;20.30;;;;;;;-1.24;91.45;98059.67;1748637;81;20988;-41
2022/12/11 03:46:43;;;;;;;38.15;20.35;;;;;;;-1.26;91.34;98061.45;1748739;81;21039;-42
2022/12/11 03:49:20;;;;;;;37.08;20.57;;;;;;;-1.19;91.43;98056.53;1748696;81;20991;-41
2022/12/11 03:51:49;;;;;;;43.75;23.70;;;;;;;-1.24;91.23;98053.22;1748802;82;21445;-42
2022/12/11 03:54:16;;;;;;;43.40;23.30;;;;;;;-1.14;91.13;98041.39;1748293;82;21056;-42
2022/12/11 03:56:44;;;;;;;;;;;;;;;-1.10;91.17;98049.44;1750768;81;20995;-42
2022/12/11 03:59:11;;;;;;;47.80;24.27;;;;;;;-0.95;90.53;98043.82;1737559;82;20117;-42
2022/12/11 04:01:36;;;;;;;45.10;22.25;;;;;;;-0.96;90.57;98044.73;1748292;81;21546;-42
2022/12/11 04:04:03;;;;;;;42.48;23.60;;;;;;;-0.84;90.38;98041.77;1748092;81;21007;-41
2022/12/11 04:06:28;;;;;;;44.50;24.20;;;;;;;-0.84;90.38;98041.77;1748069;82;20993;-41
2022/12/11 04:08:54;;;;;;;42.27;23.70;;;;;;;-1.06;89.69;98039.42;1748285;81;21023;-42
2022/12/11 04:11:35;;;;;;;43.65;23.02;;;;;;;-0.90;89.52;98045.83;1748062;82;20984;-42
2022/12/11 04:16:57;;;;;;;36.10;21.60;;;;;;;-1.07;89.54;98050.19;1748173;82;20971;-42
2022/12/11 04:24:52;;;;;;;34.55;19.45;;;;;;;-1.13;89.35;98052.09;1748162;81;21036;-42
2022/12/11 04:28:03;;;;;;;34.92;20.23;;;;;;;-1.26;89.00;98051.13;1748106;81;21028;-41
2022/12/11 04:29:46;;;;;;;40.58;23.32;;;;;;;-1.24;88.91;98055.80;1733260;81;21012;-42
2022/12/11 04:32:12;;;;;;;39.70;23.20;;;;;;;-1.28;88.69;98051.63;1748057;81;21031;-41
2022/12/11 04:34:39;;;;;;;38.78;22.07;;;;;;;-1.25;88.84;98042.98;1748087;81;21039;-41
2022/12/11 04:37:05;;;;;;;35.65;21.05;;;;;;;-1.32;88.93;98040.16;1748407;81;21007;-41
2022/12/11 04:39:31;;;;;;;38.53;21.25;;;;;;;-1.23;89.04;98039.45;1748067;81;21019;-42
2022/12/11 04:41:56;;;;;;;37.35;21.68;;;;;;;-1.32;88.77;98038.42;1747966;81;21001;-41
2022/12/11 04:44:22;;;;;;;44.25;24.15;;;;;;;-1.37;89.31;98040.27;1748099;81;20983;-41
2022/12/11 04:46:48;;;;;;;38.05;20.70;;;;;;;-1.34;89.71;98037.62;1748103;81;20968;-42
2022/12/11 04:49:14;;;;;;;34.63;20.08;;;;;;;-1.27;89.08;98033.98;1748061;81;21023;-42
2022/12/11 04:51:39;;;;;;;34.50;20.00;;;;;;;-1.24;89.02;98031.75;1748018;81;21071;-41
2022/12/11 04:54:05;;;;;;;35.68;19.40;;;;;;;-1.31;88.52;98031.09;1748068;81;20995;-42
2022/12/11 04:56:31;;;;;;;37.33;20.68;;;;;;;-1.37;88.62;98023.51;1748069;81;21051;-42
2022/12/11 04:58:57;;;;;;;35.10;20.30;;;;;;;-1.31;88.38;98023.36;1748051;81;20971;-40
2022/12/11 05:01:23;;;;;;;35.15;19.73;;;;;;;-1.34;88.41;98022.14;1748036;81;21042;-41
2022/12/11 05:03:48;;;;;;;35.45;20.60;;;;;;;-1.20;88.00;98014.88;1748066;82;21034;-41
2022/12/11 05:06:14;;;;;;;33.30;19.98;;;;;;;-1.13;88.13;98017.27;1748091;81;21433;-41
2022/12/11 05:08:42;;;;;;;36.08;21.68;;;;;;;-1.11;87.87;98011.19;1748109;82;21512;-41
2022/12/11 05:11:12;;;;;;;37.45;22.00;;;;;;;-1.14;87.77;98006.56;1748164;81;20968;-41
2022/12/11 05:13:38;;;;;;;38.88;21.90;;;;;;;-1.22;87.88;98002.47;1748063;81;20995;-41
2022/12/11 05:16:07;;;;;;;37.03;22.15;;;;;;;-1.49;88.61;98006.66;1748143;81;20964;-40
2022/12/11 05:18:33;;;;;;;40.98;21.75;;;;;;;-1.62;88.83;98000.98;1747973;82;21023;-41
2022/12/11 05:21:03;;;;;;;34.85;20.97;;;;;;;-1.63;88.89;97994.13;1748016;82;20999;-41
2022/12/11 05:23:29;;;;;;;46.20;25.97;;;;;;;-1.38;88.81;97998.17;1748024;81;20995;-41
2022/12/11 05:25:59;;;;;;;69.27;34.85;;;;;;;-1.32;88.53;98007.92;1748085;81;20982;-40
2022/12/11 05:28:27;;;;;;;58.40;32.70;;;;;;;-1.32;88.23;98002.31;1748070;81;20992;-41
2022/12/11 05:31:03;;;;;;;42.50;24.25;;;;;;;-1.37;88.32;98005.00;1748001;81;20999;-41
2022/12/11 05:33:30;;;;;;;44.42;24.98;;;;;;;-1.25;88.31;97998.67;1746772;81;21031;-41
2022/12/11 05:35:56;;;;;;;42.27;23.87;;;;;;;-1.31;88.19;98007.88;1748232;81;21023;-40
2022/12/11 05:38:22;;;;;;;35.33;22.13;;;;;;;-1.32;88.21;97998.44;1748308;81;21031;-41
2022/12/11 05:41:04;;;;;;;37.83;22.42;;;;;;;-1.43;88.62;97997.91;1748075;81;20962;-40
2022/12/11 05:43:33;;;;;;;38.20;22.30;;;;;;;-1.49;88.50;97991.61;1757305;81;21457;-41
2022/12/11 05:46:13;;;;;;;38.35;22.60;;;;;;;-1.60;89.13;97988.90;1761372;81;21027;-41
2022/12/11 05:48:40;;;;;;;40.45;23.15;;;;;;;-1.55;89.18;97988.34;1761327;81;20995;-41
2022/12/11 05:51:07;;;;;;;;;;;;;;;-1.65;89.29;97985.59;1763993;81;20990;-41
2022/12/11 05:53:34;;;;;;;37.07;21.37;;;;;;;-1.65;89.66;97983.02;1761666;81;20116;-41
2022/12/11 05:56:12;;;;;;;;;;;;;;;-1.69;89.66;97990.44;1763943;81;21772;-41
2022/12/11 05:58:38;;;;;;;38.02;21.55;;;;;;;-1.69;89.56;97978.84;1761377;81;20136;-41
2022/12/11 06:01:21;;;;;;;43.77;23.93;;;;;;;-1.75;89.64;97980.27;1761704;81;21007;-41
2022/12/11 06:03:47;;;;;;;40.03;21.77;;;;;;;-1.65;89.92;97978.31;1761371;81;21544;-40
2022/12/11 06:06:13;;;;;;;39.08;23.20;;;;;;;-1.81;90.10;97983.86;1761469;81;20999;-41
2022/12/11 06:08:39;;;;;;;40.40;22.73;;;;;;;-1.94;90.60;97973.03;1761290;81;20991;-40
2022/12/11 06:11:05;;;;;;;38.17;21.60;;;;;;;-1.91;90.58;97981.56;1761332;81;21042;-40
2022/12/11 06:13:31;;;;;;;37.20;23.27;;;;;;;-1.80;90.47;97982.98;1761342;81;20994;-41
2022/12/11 06:16:05;;;;;;;39.40;21.77;;;;;;;-1.75;90.37;97985.01;1761343;81;21035;-41
2022/12/11 06:18:36;;;;;;;41.80;23.50;;;;;;;-1.83;90.45;97987.38;1761337;81;20991;-41
2022/12/11 06:21:12;;;;;;;36.95;20.77;;;;;;;-1.75;90.55;97992.74;1761294;81;20995;-42
2022/12/11 06:23:38;;;;;;;44.05;24.20;;;;;;;-1.79;90.39;97991.56;1753055;81;20975;-41
2022/12/11 06:26:04;;;;;;;40.05;22.70;;;;;;;-1.76;90.46;97990.20;1761351;81;21039;-41
2022/12/11 06:28:30;;;;;;;39.18;23.10;;;;;;;-1.78;90.48;97979.09;1761367;81;21038;-42
2022/12/11 06:31:00;;;;;;;38.33;22.52;;;;;;;-1.72;90.17;97985.36;1761360;81;20987;-41
2022/12/11 06:33:26;;;;;;;35.25;20.37;;;;;;;-1.79;89.96;97983.38;1761308;81;20998;-41
2022/12/11 06:35:52;;;;;;;38.70;22.32;;;;;;;-1.82;90.15;97978.74;1761439;81;21512;-42
2022/12/11 06:38:18;;;;;;;41.05;23.40;;;;;;;-1.76;89.90;97981.18;1761379;81;21484;-41
2022/12/11 06:40:44;;;;;;;43.98;25.25;;;;;;;-1.89;90.26;97980.66;1761380;81;21043;-42
2022/12/11 06:43:10;;;;;;;46.02;25.23;;;;;;;-1.82;90.26;97982.19;1761178;81;21027;-41
2022/12/11 06:45:38;;;;;;;43.92;24.72;;;;;;;-1.67;90.04;97979.64;1761327;81;20996;-41
2022/12/11 06:48:04;;;;;;;47.73;26.12;;;;;;;-1.63;90.09;97980.41;1761279;81;20968;-42
2022/12/11 06:50:30;;;;;;;35.92;22.35;;;;;;;-1.61;90.13;97984.62;1761372;81;20999;-41
2022/12/11 06:52:56;;;;;;;43.15;23.98;;;;;;;-1.71;89.74;97993.50;1761336;81;20963;-41
2022/12/11 06:55:22;;;;;;;43.45;25.12;;;;;;;-1.73;89.68;97991.38;1761331;81;20994;-41
2022/12/11 06:57:48;;;;;;;42.88;24.45;;;;;;;-1.90;90.28;97991.00;1761384;81;21003;-41
2022/12/11 07:00:15;;;;;;;40.92;22.90;;;;;;;-1.90;90.50;98006.46;1761374;81;21460;-41
2022/12/11 07:02:40;;;;;;;39.33;23.00;;;;;;;-2.05;89.95;98012.41;1761394;81;21034;-42
2022/12/11 07:05:07;;;;;;;41.20;24.67;;;;;;;-1.83;89.66;98004.13;1761288;81;20979;-41
2022/12/11 07:07:33;;;;;;;39.58;23.67;;;;;;;-1.90;89.94;98004.72;1761309;81;20995;-42
2022/12/11 07:09:59;;;;;;;42.10;24.05;;;;;;;-1.88;89.33;98002.95;1761298;81;20994;-41
2022/12/11 07:12:25;;;;;;;39.13;23.20;;;;;;;-1.95;89.61;97999.70;1761292;81;21442;-41
2022/12/11 07:14:51;;;;;;;39.42;22.93;;;;;;;-2.05;89.81;98005.13;1761339;81;20995;-41
2022/12/11 07:17:17;;;;;;;40.38;23.32;;;;;;;-2.17;90.27;98009.67;1761271;81;20960;-40
2022/12/11 07:19:42;;;;;;;48.05;27.20;;;;;;;-2.21;90.55;98004.66;1761296;81;20987;-40
2022/12/11 07:22:08;;;;;;;42.08;25.25;;;;;;;-2.21;91.32;98006.78;1761262;81;20984;-41
2022/12/11 07:24:34;;;;;;;43.17;24.12;;;;;;;-2.10;90.75;98001.36;1761287;81;20991;-42
2022/12/11 07:27:00;;;;;;;39.73;22.75;;;;;;;-2.18;91.07;98000.72;1761273;81;21477;-41
2022/12/11 07:29:25;;;;;;;53.80;29.80;;;;;;;-2.28;91.64;98003.11;1761384;81;20994;-40
2022/12/11 07:31:51;;;;;;;43.78;24.20;;;;;;;-2.33;91.92;97998.05;1761428;81;20995;-41
2022/12/11 07:34:17;;;;;;;43.40;24.18;;;;;;;-2.37;92.23;97990.84;1761546;81;21330;-42
2022/12/11 07:36:43;;;;;;;38.00;21.57;;;;;;;-2.17;91.52;97994.67;1761473;81;20990;-42
2022/12/11 07:39:11;;;;;;;37.28;21.97;;;;;;;-2.12;90.97;97989.80;1761571;81;21449;-41
2022/12/11 07:41:37;;;;;;;39.95;24.37;;;;;;;-2.19;91.25;97971.97;1761483;81;21038;-41
2022/12/11 07:44:04;;;;;;;40.30;23.00;;;;;;;-2.09;91.51;97973.87;1761314;81;21019;-41
2022/12/11 07:46:32;;;;;;;42.13;25.52;;;;;;;-2.01;91.47;97979.23;1761525;81;21484;-41
2022/12/11 07:48:59;;;;;;;;;;;;;;;-1.91;91.20;97973.42;1764089;81;20987;-41
2022/12/11 07:51:31;;;;;;;35.73;21.15;;;;;;;-1.87;90.92;97971.16;1761460;81;20105;-41
2022/12/11 07:54:01;;;;;;;41.10;22.70;;;;;;;-1.85;90.18;97969.83;1761161;81;21003;-41
2022/12/11 07:56:28;;;;;;;37.35;23.47;;;;;;;-1.88;90.08;97973.77;1761528;81;20971;-41
2022/12/11 07:58:54;;;;;;;;;;;;;;;-1.83;90.16;97968.89;1764059;81;20976;-41
2022/12/11 08:01:26;;;;;;;35.45;22.07;;;;;;;-1.77;90.22;97968.72;1761509;81;20148;-42
2022/12/11 08:03:53;;;;;;;32.83;21.12;;;;;;;-1.78;90.05;97972.65;1761453;81;21007;-41
2022/12/11 08:06:28;;;;;;;34.73;20.10;;;;;;;-1.73;89.79;97972.05;1761576;81;20975;-41
2022/12/11 08:08:56;;;;;;;29.57;18.23;;;;;;;-1.78;89.82;97967.49;1761557;81;21038;-42
2022/12/11 08:11:22;;;;;;;27.52;17.15;;;;;;;-1.76;88.84;97968.30;1761524;81;21021;-42
2022/12/11 08:13:48;;;;;;;29.32;17.75;;;;;;;-1.84;88.71;97968.92;1761404;81;20999;-41
2022/12/11 08:16:16;;;;;;;26.95;17.52;;;;;;;-1.74;88.70;97961.36;1761564;81;20999;-41
2022/12/11 08:18:44;;;;;;;38.58;19.35;;;;;;;-1.77;88.63;97957.57;1761451;80;21006;-41
2022/12/11 08:21:20;;;;;;;46.25;22.13;;;;;;;-1.80;88.68;97960.22;1761402;81;20999;-41
2022/12/11 08:23:46;;;;;;;42.58;20.43;;;;;;;-1.86;88.73;97952.66;1761440;81;20993;-43
2022/12/11 08:26:16;;;;;;;35.25;20.02;;;;;;;-1.76;88.96;97956.70;1761463;81;21456;-42
2022/12/11 08:28:43;;;;;;;35.45;18.98;;;;;;;-1.82;88.76;97953.84;1761541;81;20992;-41
2022/12/11 08:31:12;;;;;;;37.00;20.40;;;;;;;-1.71;88.88;97960.00;1761846;81;21802;-41
2022/12/11 08:33:40;;;;;;;31.27;17.80;;;;;;;-1.79;88.85;97956.31;1761496;81;21480;-40
2022/12/11 08:36:09;;;;;;;31.37;18.67;;;;;;;-1.89;88.37;97960.47;1761385;81;20963;-41
2022/12/11 08:38:36;;;;;;;26.73;16.67;;;;;;;-1.84;88.67;97959.45;1761439;81;21043;-41
2022/12/11 08:41:19;;;;;;;27.25;17.10;;;;;;;-2.04;88.96;97961.72;1761376;81;21038;-41
2022/12/11 08:43:47;;;;;;;27.40;16.20;;;;;;;-1.82;88.58;97968.44;1761339;81;21567;-41
2022/12/11 08:46:13;;;;;;;26.30;15.25;;;;;;;-2.10;89.03;97967.88;1761605;81;21034;-41
2022/12/11 08:48:42;;;;;;;27.60;16.95;;;;;;;-1.90;88.70;97964.78;1761640;81;20995;-42
2022/12/11 08:51:12;;;;;;;23.87;14.87;;;;;;;-1.92;88.65;97967.84;1761400;81;20999;-41
2022/12/11 08:53:38;;;;;;;29.18;17.75;;;;;;;-1.88;88.33;97967.32;1761483;81;20987;-43
2022/12/11 08:56:08;;;;;;;31.33;17.77;;;;;;;-1.81;88.40;97966.28;1761381;81;21006;-41
2022/12/11 08:58:35;;;;;;;29.70;18.25;;;;;;;-2.01;88.25;97962.48;1761391;80;21014;-42
2022/12/11 09:01:11;;;;;;;34.93;19.60;;;;;;;-1.96;88.96;97962.38;1761648;81;20972;-41
2022/12/11 09:03:38;;;;;;;35.25;20.15;;;;;;;-1.88;89.12;97957.85;1761316;81;21504;-41
2022/12/11 09:06:11;;;;;;;31.85;19.75;;;;;;;-1.77;88.64;97954.98;1761372;81;21027;-42
2022/12/11 09:08:37;;;;;;;35.28;20.75;;;;;;;-1.79;88.46;97947.30;1761347;81;21029;-42
2022/12/11 09:11:07;;;;;;;34.73;21.90;;;;;;;-1.82;88.30;97949.11;1761588;80;21646;-41
2022/12/11 09:13:33;;;;;;;35.17;20.57;;;;;;;-1.84;88.14;97949.59;1761393;81;21426;-41
2022/12/11 09:15:59;;;;;;;31.55;19.57;;;;;;;-2.05;88.48;97946.71;1761352;81;20976;-42
2022/12/11 09:18:24;;;;;;;31.80;20.27;;;;;;;-1.89;88.33;97947.16;1761364;81;20973;-41
2022/12/11 09:21:03;;;;;;;35.73;21.62;;;;;;;-1.82;87.87;97951.27;1761467;81;20967;-41
2022/12/11 09:23:29;;;;;;;38.15;22.32;;;;;;;-2.05;88.14;97946.71;1761351;81;21476;-42
2022/12/11 09:25:55;;;;;;;35.23;21.27;;;;;;;-2.00;88.42;97940.14;1761353;81;21514;-41
2022/12/11 09:28:21;;;;;;;33.33;20.97;;;;;;;-1.95;88.83;97944.31;1761378;81;21123;-41
2022/12/11 09:30:47;;;;;;;35.48;21.37;;;;;;;-1.87;88.13;97945.39;1761305;81;21042;-42
2022/12/11 09:33:12;;;;;;;40.85;23.80;;;;;;;-1.88;88.18;97948.00;1761351;81;21430;-41
2022/12/11 09:35:38;;;;;;;37.48;21.68;;;;;;;-1.95;88.75;97943.44;1761340;81;20967;-41
2022/12/11 09:38:04;;;;;;;34.90;21.62;;;;;;;-1.82;87.81;97944.83;1761307;81;20995;-41
2022/12/11 09:40:31;;;;;;;33.83;20.40;;;;;;;-1.97;87.86;97939.61;1761475;81;20995;-41
2022/12/11 09:43:31;;;;;;;35.27;20.30;;;;;;;-1.91;88.32;97931.33;1761661;81;21449;-42
2022/12/11 09:46:02;;;;;;;31.75;20.68;;;;;;;-2.14;88.45;97928.92;1761376;81;20987;-41
2022/12/11 09:48:30;;;;;;;35.30;21.65;;;;;;;-2.11;89.16;97917.27;1761398;81;21493;-42
2022/12/11 09:50:56;;;;;;;32.70;21.42;;;;;;;-1.97;88.60;97915.59;1761163;81;21470;-41
2022/12/11 09:53:35;;;;;;;37.33;21.57;;;;;;;-1.94;88.57;97913.78;1761425;81;21464;-41
2022/12/11 09:56:15;;;;;;;32.63;20.52;;;;;;;-1.88;88.82;97909.34;1761406;81;21037;-42
2022/12/11 09:59:10;;;;;;;35.13;21.87;;;;;;;-2.05;89.20;97908.08;1761357;81;20990;-41
2022/12/11 10:02:12;;;;;;;41.40;22.25;;;;;;;-1.90;88.91;97912.41;1761330;81;20992;-40
2022/12/11 10:05:25;;;;;;;31.65;19.73;;;;;;;-1.82;88.75;97895.86;1761310;81;21495;-42
2022/12/11 10:08:26;;;;;;;30.97;18.35;;;;;;;-2.03;88.55;97901.15;1736024;81;21579;-41
2022/12/11 10:11:06;;;;;;;27.35;17.05;;;;;;;-1.96;88.30;97894.11;1761348;81;20994;-41
2022/12/11 10:13:53;;;;;;;29.10;17.25;;;;;;;-1.93;88.33;97886.27;1739477;81;21026;-41
2022/12/11 10:16:42;;;;;;;24.63;15.00;;;;;;;-2.15;88.08;97883.44;1761346;81;20995;-42
2022/12/11 10:19:21;;;;;;;29.82;18.15;;;;;;;-1.83;88.20;97886.42;1761213;81;20986;-41
2022/12/11 10:21:52;;;;;;;28.73;17.45;;;;;;;-2.00;87.17;97879.17;1760496;81;20995;-41
2022/12/11 10:24:34;;;;;;;26.17;16.40;;;;;;;-2.07;87.88;97884.09;1760978;81;21014;-41
2022/12/11 10:27:13;;;;;;;26.07;17.73;;;;;;;-2.03;87.59;97873.27;1761092;81;21464;-43
2022/12/11 10:29:39;;;;;;;28.60;17.73;;;;;;;-2.02;87.62;97877.09;1761416;81;21054;-42
2022/12/11 10:32:13;;;;;;;27.42;17.77;;;;;;;-2.18;87.75;97886.12;1761254;81;21011;-42
2022/12/11 10:34:43;;;;;;;27.95;18.05;;;;;;;-2.13;87.96;97883.81;1761094;81;21031;-42
2022/12/11 10:37:09;;;;;;;28.57;18.20;;;;;;;-2.13;87.84;97882.95;1761207;81;21480;-42
2022/12/11 10:39:35;;;;;;;29.63;17.70;;;;;;;-2.08;88.05;97873.38;1761327;81;20995;-43
2022/12/11 10:42:06;;;;;;;29.23;17.70;;;;;;;-1.90;87.73;97869.91;1761395;81;20991;-43
2022/12/11 10:44:32;;;;;;;27.50;17.30;;;;;;;-1.93;87.90;97865.66;1752006;81;20996;-42
2022/12/11 10:47:13;;;;;;;28.30;18.48;;;;;;;-1.83;87.94;97864.52;1748089;81;21540;-43
2022/12/11 10:49:57;;;;;;;30.52;19.17;;;;;;;-1.86;87.68;97856.88;1747966;81;20983;-42
2022/12/11 10:52:37;;;;;;;29.18;18.07;;;;;;;-1.98;88.16;97852.92;1747990;81;21467;-42
2022/12/11 10:55:20;;;;;;;31.65;18.07;;;;;;;-1.93;88.17;97846.34;1748057;81;20984;-42
2022/12/11 10:58:00;;;;;;;25.23;16.82;;;;;;;-2.10;88.28;97842.95;1747995;82;21445;-42
2022/12/11 11:00:35;;;;;;;31.00;19.40;;;;;;;-2.03;87.84;97835.45;1748204;81;20988;-42
2022/12/11 11:03:03;;;;;;;30.57;17.80;;;;;;;-2.08;87.69;97837.77;1748100;82;21020;-41
2022/12/11 11:05:34;;;;;;;23.85;15.70;;;;;;;-1.94;87.55;97827.47;1748185;81;21001;-41
2022/12/11 11:08:14;;;;;;;28.38;17.60;;;;;;;-1.88;87.47;97830.31;1748120;82;21458;-39
2022/12/11 11:10:58;;;;;;;34.85;19.00;;;;;;;-1.99;87.66;97820.31;1748079;81;21004;-42
2022/12/11 11:13:28;;;;;;;31.68;19.02;;;;;;;-1.98;87.81;97825.04;1748161;82;21007;-41
2022/12/11 11:16:06;;;;;;;29.50;18.65;;;;;;;-1.86;88.08;97813.06;1748215;81;21437;-41
2022/12/11 11:18:33;;;;;;;33.28;19.60;;;;;;;-1.81;88.18;97814.23;1748140;81;21488;-41
2022/12/11 11:21:00;;;;;;;36.50;19.82;;;;;;;-1.75;88.00;97816.20;1748357;81;21039;-41
2022/12/11 11:23:27;;;;;;;28.62;18.70;;;;;;;-1.89;88.27;97809.73;1748231;81;20995;-41
2022/12/11 11:25:59;;;;;;;34.73;20.17;;;;;;;-1.72;87.98;97804.11;1748506;81;21544;-42
2022/12/11 11:28:31;;;;;;;33.90;20.27;;;;;;;-1.70;88.17;97801.88;1748110;81;21003;-40
2022/12/11 11:31:10;;;;;;;36.63;20.97;;;;;;;-1.66;88.41;97803.46;1743061;82;21039;-42
2022/12/11 11:34:02;;;;;;;34.10;19.80;;;;;;;-1.61;88.46;97799.02;1748117;81;20995;-42
2022/12/11 11:36:34;;;;;;;27.00;16.70;;;;;;;-1.55;88.14;97800.14;1748162;81;21445;-42
2022/12/11 11:39:20;;;;;;;26.25;16.57;;;;;;;-1.56;87.37;97804.05;1747773;81;20988;-42
2022/12/11 11:42:18;;;;;;;25.08;16.02;;;;;;;-1.66;86.53;97803.92;1748075;81;21007;-42
2022/12/11 11:45:07;;;;;;;30.48;16.80;;;;;;;-1.45;86.64;97804.56;1748006;80;21063;-42
2022/12/11 11:47:39;;;;;;;27.50;17.32;;;;;;;-1.64;86.12;97795.69;1748050;81;20992;-42